Data for 09/07/2018

Time Sea-Level Adjusted Pressure Absolute Pressure Temperature Relative Humidity Dew Point   
(mb) (inHg) (mb) (inHg) (C) (F) (%) (C) (F)
00:05 1025 30.27 854 25.22 19.5 67.2 35 3.8 38.9
00:10 1025 30.27 854 25.22 19.4 66.9 35 3.8 38.9
00:15 1025 30.27 854 25.22 19.4 66.9 35 3.7 38.6
00:20 1025 30.27 854 25.22 19.5 67.1 35 3.8 38.9
00:25 1025 30.27 854 25.22 19.1 66.5 36 3.9 39
00:30 1025 30.27 854 25.22 18.9 65.9 36 3.7 38.6
00:35 1025 30.27 854 25.22 18.8 65.8 36 3.6 38.4
00:40 1025 30.27 854 25.22 18.7 65.7 36 3.7 38.6
00:45 1025 30.27 854 25.22 18.6 65.4 37 3.5 38.4
00:50 1025 30.27 854 25.22 18.5 65.2 37 3.6 38.5
00:55 1025 30.27 854 25.22 18.5 65.2 38 3.8 38.9
01:00 1025 30.27 854 25.22 18.6 65.4 38 4 39.3
01:05 1025 30.27 854 25.22 18.6 65.5 38 4 39.2
01:10 1025 30.27 854 25.22 18.7 65.7 38 4.1 39.4
01:15 1025 30.27 854 25.22 18.8 65.9 37 4 39.2
01:20 1025 30.27 854 25.22 19.1 66.3 35 3.5 38.2
01:25 1025 30.27 854 25.22 19.2 66.6 35 3.5 38.3
01:30 1025 30.27 854 25.22 19.1 66.4 38 4.7 40.5
01:35 1025 30.27 854 25.22 18.5 65.4 38 4.1 39.4
01:40 1025 30.27 854 25.22 18.6 65.5 36 3.3 38
01:45 1025 30.27 854 25.22 18.7 65.6 38 4.2 39.5
01:50 1025 30.27 854 25.22 18.2 64.7 40 4.5 40.1
01:55 1025 30.27 854 25.22 17.5 63.4 46 5.7 42.3
02:00 1025 30.27 854 25.22 16.6 62 44 4.5 40
02:05 1025 30.27 854 25.22 16.9 62.5 42 4.1 39.4
02:10 1025 30.27 854 25.22 16.9 62.4 43 4.5 40.1
02:15 1025 30.27 854 25.22 16.8 62.3 43 4.4 39.9
02:20 1025 30.27 854 25.22 16.4 61.6 44 4.3 39.7
02:25 1024 30.24 854 25.22 16.2 61.2 41 3.2 37.7
02:30 1024 30.24 854 25.22 16.8 62.3 40 3.3 37.9
02:35 1024 30.24 854 25.22 17.2 62.9 40 3.7 38.7
02:40 1024 30.24 854 25.22 17 62.6 38 2.7 36.8
02:45 1024 30.24 854 25.22 17.6 63.7 36 2.6 36.7
02:50 1024 30.24 854 25.22 17.3 63.1 39 3.2 37.8
02:55 1024 30.24 853 25.19 16.9 62.3 39 2.8 37.1
03:00 1024 30.24 853 25.19 16.6 61.9 40 2.9 37.3
03:05 1024 30.24 853 25.19 16.4 61.6 41 3.2 37.8
03:10 1024 30.24 854 25.22 16.1 60.9 42 3.3 37.9
03:15 1024 30.24 853 25.19 15.9 60.7 41 2.8 37
03:20 1024 30.24 853 25.19 15.7 60.2 41 2.7 36.9
03:25 1024 30.24 853 25.19 15.5 59.9 42 2.8 37.1
03:30 1024 30.24 853 25.19 15.4 59.6 43 3 37.5
03:35 1024 30.24 853 25.19 15.3 59.5 42 2.7 36.8
03:40 1024 30.24 853 25.19 15.3 59.5 41 2.4 36.2
03:45 1024 30.24 853 25.19 15.4 59.8 40 2.2 35.9
03:50 1024 30.24 853 25.19 15.4 59.7 41 2.5 36.4
03:55 1024 30.24 853 25.19 15.2 59.3 42 2.4 36.3
04:00 1024 30.24 853 25.19 15.2 59.3 42 2.5 36.6
04:05 1024 30.24 853 25.19 15.2 59.3 42 2.4 36.3
04:10 1024 30.24 853 25.19 15.3 59.5 43 2.7 36.8
04:15 1024 30.24 853 25.19 15.2 59.3 43 2.6 36.7
04:20 1024 30.24 853 25.19 15.1 59.2 41 2 35.7
04:25 1024 30.24 853 25.19 15.3 59.5 41 2.2 36
04:30 1024 30.24 853 25.19 15.3 59.6 41 2.2 35.9
04:35 1024 30.24 853 25.19 15.5 59.9 39 1.8 35.2
04:40 1024 30.24 853 25.19 15.5 60 40 2.1 35.8
04:45 1024 30.24 853 25.19 15.3 59.6 41 2.1 35.7
04:50 1024 30.24 853 25.19 15.3 59.5 40 2 35.6
04:55 1024 30.24 853 25.19 15.5 59.9 40 2 35.7
05:00 1024 30.24 853 25.19 15.5 60 40 2 35.7
05:05 1024 30.24 853 25.19 15.7 60.2 39 2 35.5
05:10 1024 30.24 853 25.19 15.6 60.1 40 2 35.7
05:15 1024 30.24 853 25.19 15.1 59.2 41 1.9 35.4
05:20 1024 30.24 853 25.19 14.7 58.5 42 2.1 35.7
05:25 1024 30.24 853 25.19 14.4 57.9 42 1.9 35.4
05:30 1024 30.24 853 25.19 14.5 58.2 41 1.6 34.9
05:35 1024 30.24 853 25.19 14.7 58.5 41 1.9 35.3
05:40 1024 30.24 853 25.19 14.7 58.4 42 2.1 35.7
05:45 1024 30.24 854 25.22 14.5 58.1 43 2.2 36
05:50 1024 30.24 854 25.22 14.2 57.6 45 2.4 36.4
05:55 1024 30.24 854 25.22 14 57.2 46 2.6 36.6
06:00 1024 30.24 854 25.22 13.8 56.9 46 2.5 36.5
06:05 1024 30.24 854 25.22 13.7 56.7 47 2.6 36.6
06:10 1024 30.24 854 25.22 13.6 56.4 46 2.2 36
06:15 1025 30.27 854 25.22 13.5 56.4 47 2.6 36.6
06:20 1025 30.27 854 25.22 13.4 56.2 47 2.4 36.4
06:25 1025 30.27 854 25.22 13.2 55.7 49 2.7 36.8
06:30 1025 30.27 854 25.22 13.1 55.6 48 2.4 36.3
06:35 1025 30.27 854 25.22 13.4 56.1 48 2.6 36.8
06:40 1025 30.27 854 25.22 13.8 56.9 48 3.1 37.6
06:45 1025 30.27 854 25.22 13.9 57 48 3.2 37.7
06:50 1025 30.27 854 25.22 14.1 57.4 48 3.2 37.8
06:55 1025 30.27 854 25.22 13.8 56.8 47 2.6 36.7
07:00 1025 30.27 854 25.22 13.6 56.5 46 2.4 36.2
07:05 1025 30.27 854 25.22 13.7 56.6 47 2.7 36.9
07:10 1025 30.27 854 25.22 13.6 56.5 46 2.4 36.3
07:15 1025 30.27 854 25.22 13.7 56.7 47 2.6 36.7
07:20 1025 30.27 854 25.22 13.7 56.6 49 3.1 37.6
07:25 1025 30.27 854 25.22 13.8 56.9 49 3.5 38.3
07:30 1025 30.27 854 25.22 13.8 56.8 50 3.7 38.7
07:35 1025 30.27 854 25.22 13.9 57 49 3.4 38.1
07:40 1025 30.27 854 25.22 14.2 57.5 48 3.5 38.3
07:45 1025 30.27 854 25.22 14.4 57.9 47 3.4 38.2
07:50 1025 30.27 854 25.22 14.7 58.4 48 3.8 38.8
07:55 1025 30.27 854 25.22 14.9 58.8 49 4.4 39.9
08:00 1025 30.27 854 25.22 15.3 59.5 48 4.3 39.7
08:05 1025 30.27 854 25.22 15.5 60 47 4.5 40.1
08:10 1025 30.27 854 25.22 16.2 61.1 45 4.4 40
08:15 1025 30.27 854 25.22 16.6 62 43 4.2 39.6
08:20 1025 30.27 854 25.22 17.1 62.8 41 4 39.2
08:25 1025 30.27 854 25.22 17.4 63.4 42 4.5 40.1
08:30 1025 30.27 854 25.22 17.9 64.2 40 4.2 39.5
08:35 1025 30.27 854 25.22 18.3 64.9 39 4.1 39.4
08:40 1025 30.27 854 25.22 18.3 65 38 4 39.3
08:45 1024 30.24 854 25.22 18.7 65.6 38 4.4 39.9
08:50 1024 30.24 854 25.22 18.9 66.1 37 4.2 39.6
08:55 1024 30.24 854 25.22 19.3 66.7 37 4.4 39.8
09:00 1024 30.24 854 25.22 19.6 67.4 34 3.6 38.5
09:05 1024 30.24 854 25.22 20.2 68.3 34 3.9 39
09:10 1024 30.24 854 25.22 19.9 67.8 36 4.5 40.1
09:15 1024 30.24 854 25.22 20.4 68.7 33 3.9 39
09:20 1024 30.24 854 25.22 21 69.9 32 4 39.2
09:25 1024 30.24 854 25.22 21.7 71.1 31 4.1 39.4
09:30 1024 30.24 854 25.22 22.2 71.9 30 4.1 39.4
09:35 1024 30.24 854 25.22 22.3 72.1 30 4 39.2
09:40 1024 30.24 854 25.22 21.9 71.4 29 3.1 37.5
09:45 1024 30.24 854 25.22 22.3 72.2 28 3.1 37.5
09:50 1024 30.24 854 25.22 23.3 74 26 3.1 37.6
09:55 1024 30.24 854 25.22 23.4 74.2 27 3.4 38.1
10:00 1024 30.24 854 25.22 23.8 74.8 26 3.4 38.1
10:05 1024 30.24 854 25.22 24.2 75.6 25 3.1 37.7
10:10 1024 30.24 853 25.19 24.4 75.8 24 3 37.4
10:15 1024 30.24 853 25.19 24.7 76.4 23 2.4 36.2
10:20 1024 30.24 853 25.19 24.8 76.7 23 2.7 36.9
10:25 1024 30.24 853 25.19 25.1 77.1 22 2.2 36
10:30 1024 30.24 853 25.19 25 77 22 1.8 35.2
10:35 1024 30.24 853 25.19 24.9 76.8 23 2.7 36.9
10:40 1024 30.24 853 25.19 25 77 24 3.3 38
10:45 1024 30.24 853 25.19 24.8 76.6 24 3.2 37.7
10:50 1024 30.24 853 25.19 25.2 77.3 24 3.2 37.8
10:55 1024 30.24 853 25.19 25.2 77.3 26 4.4 39.9
11:00 1024 30.24 853 25.19 24.1 75.4 27 4.1 39.4
11:05 1024 30.24 853 25.19 25 76.9 24 3.4 38.1
11:10 1024 30.24 853 25.19 25.1 77.1 23 2.6 36.7
11:15 1024 30.24 853 25.19 25.4 77.7 23 3 37.4
11:20 1024 30.24 853 25.19 25.9 78.6 21 2.5 36.4
11:25 1024 30.24 853 25.19 25.4 77.8 21 1.5 34.7
11:30 1024 30.24 853 25.19 26.1 79 21 2.4 36.3
11:35 1024 30.24 853 25.19 27.1 80.8 20 2.2 36
11:40 1024 30.24 853 25.19 27.2 81 20 2.5 36.5
11:45 1024 30.24 853 25.19 27.8 82.1 17 1.1 34
11:50 1024 30.24 853 25.19 28 82.4 18 2 35.7
11:55 1024 30.24 853 25.19 27.7 81.9 18 1.6 34.9
12:00 1023 30.21 853 25.19 28.4 83.1 18 1.8 35.2
12:05 1023 30.21 853 25.19 28.4 83.1 16 0.1 32.1
12:10 1023 30.21 852 25.16 28.6 83.5 16 1 33.8
12:15 1023 30.21 852 25.16 28.3 83 19 2.8 37
12:20 1023 30.21 852 25.16 27.9 82.2 19 2.6 36.7
12:25 1023 30.21 852 25.16 27.3 81.1 19 1.8 35.2
12:30 1023 30.21 852 25.16 26.7 80.1 20 2.1 35.7
12:35 1023 30.21 852 25.16 27.1 80.8 20 2.3 36.1
12:40 1023 30.21 852 25.16 27.6 81.6 18 1.6 34.9
12:45 1023 30.21 852 25.16 27.9 82.2 19 2.4 36.4
12:50 1023 30.21 852 25.16 28.1 82.5 18 1.6 34.8
12:55 1023 30.21 852 25.16 28.5 83.2 18 2 35.5
13:00 1023 30.21 852 25.16 29.2 84.5 15 0.5 33
13:05 1023 30.21 852 25.16 29.4 85 16 0.9 33.6
13:10 1023 30.21 852 25.16 28.6 83.5 15 0 32
13:15 1022 30.18 852 25.16 29.3 84.8 14 -0.8 30.6
13:20 1022 30.18 852 25.16 29 84.1 13 -1.6 29.1
13:25 1022 30.18 852 25.16 29.3 84.7 12 -2.7 27.2
13:30 1022 30.18 852 25.16 28.4 83.1 11 -4.6 23.7
13:35 1022 30.18 851 25.13 29 84.2 12 -2.8 27
13:40 1022 30.18 851 25.13 30.2 86.4 11 -3.6 25.5
13:45 1022 30.18 851 25.13 30.4 86.6 10 -4 24.8
13:50 1022 30.18 851 25.13 29.6 85.3 12 -2.9 26.8
13:55 1022 30.18 851 25.13 28.8 83.9 12 -3 26.6
14:00 1022 30.18 851 25.13 28.6 83.4 12 -3.4 25.8
14:05 1022 30.18 851 25.13 28.3 83 13 -2.8 27
14:10 1022 30.18 851 25.13 29.4 85 10 -4.9 23.1
14:15 1022 30.18 851 25.13 30.3 86.5 9 -5.3 22.5
14:20 1022 30.18 851 25.13 30.3 86.5 10 -4.6 23.7
14:25 1022 30.18 851 25.13 30.8 87.4 10 -3.7 25.4
14:30 1022 30.18 851 25.13 30.4 86.8 11 -2.5 27.4
14:35 1022 30.18 851 25.13 29.7 85.4 11 -3.5 25.7
14:40 1022 30.18 851 25.13 29.4 84.8 12 -2.9 26.8
14:45 1022 30.18 851 25.13 30.3 86.5 10 -3.9 25
14:50 1021 30.15 851 25.13 30.1 86.2 12 -2.4 27.7
14:55 1021 30.15 851 25.13 29.5 85 11 -3.5 25.8
15:00 1021 30.15 851 25.13 30 85.9 11 -3.8 25.2
15:05 1021 30.15 851 25.13 29.5 85.2 11 -4 24.8
15:10 1021 30.15 851 25.13 29.5 85.1 11 -3.6 25.5
15:15 1021 30.15 851 25.13 28.9 84 11 -4.4 24
15:20 1021 30.15 850 25.1 29 84.3 11 -3.8 25.1
15:25 1021 30.15 850 25.1 28.9 84 11 -4.4 24.1
15:30 1021 30.15 850 25.1 29.6 85.3 11 -3.4 25.9
15:35 1021 30.15 850 25.1 30 86 11 -3.9 25
15:40 1021 30.15 850 25.1 29.2 84.6 11 -3.9 24.9
15:45 1021 30.15 850 25.1 29 84.1 12 -3.2 26.2
15:50 1021 30.15 850 25.1 29.3 84.7 11 -3.9 24.9
15:55 1021 30.15 850 25.1 29.2 84.6 11 -3.4 25.9
16:00 1021 30.15 850 25.1 28.7 83.6 12 -3.1 26.4
16:05 1021 30.15 850 25.1 29.3 84.7 11 -3.7 25.3
16:10 1021 30.15 850 25.1 30 86 10 -4.2 24.5
16:15 1021 30.15 850 25.1 30.1 86.2 10 -4 24.8
16:20 1021 30.15 850 25.1 29.9 85.9 11 -3 26.6
16:25 1021 30.15 850 25.1 29.5 85.1 13 -1.4 29.4
16:30 1021 30.15 850 25.1 28.7 83.6 12 -3.2 26.2
16:35 1021 30.15 850 25.1 28.9 84 11 -3.7 25.4
16:40 1021 30.15 850 25.1 29 84.2 12 -2.5 27.5
16:45 1021 30.15 850 25.1 29.3 84.7 12 -2.7 27.1
16:50 1021 30.15 850 25.1 29.6 85.3 11 -3.5 25.8
16:55 1021 30.15 850 25.1 29.6 85.2 12 -2.7 27.1
17:00 1021 30.15 850 25.1 29.7 85.5 12 -2.9 26.7
17:05 1021 30.15 850 25.1 29.6 85.2 12 -2.1 28.3
17:10 1020 30.12 850 25.1 29.7 85.4 13 -1.6 29.1
17:15 1020 30.12 850 25.1 29 84.3 12 -2.6 27.3
17:20 1020 30.12 850 25.1 28.6 83.5 12 -2.9 26.8
17:25 1020 30.12 850 25.1 28.6 83.4 13 -1.9 28.7
17:30 1020 30.12 850 25.1 28.5 83.2 13 -2.4 27.8
17:35 1020 30.12 850 25.1 28.2 82.8 14 -1.8 28.7
17:40 1020 30.12 850 25.1 27.9 82.2 14 -1.4 29.5
17:45 1020 30.12 850 25.1 27.7 81.9 14 -1.8 28.7
17:50 1020 30.12 850 25.1 27.6 81.6 14 -2.4 27.6
17:55 1020 30.12 850 25.1 27.6 81.6 15 -0.9 30.3
18:00 1020 30.12 850 25.1 27.6 81.6 14 -1.9 28.6
18:05 1020 30.12 850 25.1 27.4 81.4 15 -1.6 29.2
18:10 1020 30.12 850 25.1 27 80.6 17 0.5 32.8
18:15 1020 30.12 850 25.1 26.6 79.9 19 1.7 35
18:20 1020 30.12 850 25.1 26.2 79.2 20 1.6 34.9
18:25 1020 30.12 849 25.07 25.9 78.6 20 1.7 35.1
18:30 1020 30.12 849 25.07 25.2 77.3 22 2.4 36.2
18:35 1020 30.12 849 25.07 24.7 76.4 22 1.9 35.3
18:40 1020 30.12 849 25.07 24.6 76.2 22 1.8 35.3
18:45 1020 30.12 849 25.07 24.4 75.9 22 1.8 35.2
18:50 1020 30.12 849 25.07 24.1 75.4 24 2.5 36.6
18:55 1020 30.12 849 25.07 23.7 74.6 25 2.9 37.2
19:00 1020 30.12 849 25.07 23 73.3 27 3 37.3
19:05 1020 30.12 849 25.07 22.5 72.5 28 3.6 38.4
19:10 1020 30.12 849 25.07 22.1 71.8 27 2.6 36.6
19:15 1020 30.12 849 25.07 22 71.7 26 1.7 35.1
19:20 1020 30.12 849 25.07 22.3 72.1 26 1.8 35.3
19:25 1020 30.12 849 25.07 22.2 72 26 1.9 35.3
19:30 1020 30.12 849 25.07 22.3 72.2 24 0.9 33.7
19:35 1020 30.12 849 25.07 22.7 72.8 24 1.1 34
19:40 1020 30.12 849 25.07 22.8 73 26 2.2 36
19:45 1020 30.12 849 25.07 22.5 72.4 25 1.7 35.1
19:50 1020 30.12 849 25.07 22.1 71.8 25 1.6 34.8
19:55 1020 30.12 849 25.07 21.9 71.4 26 1.7 35
20:00 1020 30.12 849 25.07 21.7 71.1 25 1.1 34.1
20:05 1020 30.12 849 25.07 21.7 71 26 1.5 34.7
20:10 1020 30.12 849 25.07 21.6 70.9 26 1.6 34.9
20:15 1020 30.12 849 25.07 21.3 70.4 26 1.3 34.3
20:20 1020 30.12 849 25.07 21.4 70.6 26 1.3 34.4
20:25 1020 30.12 849 25.07 21.3 70.3 26 1.3 34.4
20:30 1020 30.12 849 25.07 21 69.8 27 1.4 34.5
20:35 1020 30.12 849 25.07 20.8 69.4 27 1.4 34.6
20:40 1020 30.12 849 25.07 20.7 69.3 27 1.3 34.4
20:45 1020 30.12 849 25.07 20.6 69 27 1.3 34.3
20:50 1020 30.12 849 25.07 20.4 68.7 28 1.4 34.5
20:55 1020 30.12 849 25.07 20.3 68.5 27 0.8 33.5
21:00 1020 30.12 849 25.07 20.4 68.7 27 0.8 33.5
21:05 1020 30.12 849 25.07 20.4 68.6 27 1.1 34
21:10 1020 30.12 849 25.07 20.2 68.4 28 1.2 34.2
21:15 1020 30.12 849 25.07 20 68.1 27 0.9 33.5
21:20 1020 30.12 849 25.07 19.9 67.8 28 1.1 34
21:25 1020 30.12 849 25.07 19.8 67.6 28 0.9 33.7
21:30 1020 30.12 849 25.07 19.9 67.8 27 0.6 33
21:35 1020 30.12 849 25.07 19.9 67.8 28 0.9 33.6
21:40 1020 30.12 849 25.07 19.7 67.4 28 0.8 33.4
21:45 1020 30.12 849 25.07 19.6 67.2 29 1 33.8
21:50 1020 30.12 849 25.07 19.4 66.9 29 1 33.8
21:55 1020 30.12 849 25.07 19.4 66.9 28 0.6 33.1
22:00 1019 30.09 849 25.07 19.6 67.2 28 0.9 33.5
22:05 1019 30.09 849 25.07 19.5 67.1 28 0.8 33.5
22:10 1019 30.09 849 25.07 19.5 67 28 0.6 33.1
22:15 1019 30.09 849 25.07 19.8 67.6 28 0.6 33.1
22:20 1019 30.09 848 25.04 19.8 67.6 27 0.5 32.9
22:25 1019 30.09 848 25.04 19.9 67.7 27 0.5 33
22:30 1019 30.09 848 25.04 19.8 67.7 27 0.3 32.6
22:35 1019 30.09 848 25.04 20 67.9 27 0.4 32.8
22:40 1019 30.09 848 25.04 19.9 67.9 27 0.3 32.6
22:45 1019 30.09 848 25.04 20.1 68.1 26 0.1 32.2
22:50 1019 30.09 849 25.07 20.4 68.7 26 0.6 33
22:55 1020 30.12 849 25.07 20 68 28 0.9 33.5
23:00 1020 30.12 849 25.07 19.7 67.5 27 0.6 33.1
23:05 1020 30.12 849 25.07 20 68.1 27 0.8 33.4
23:10 1020 30.12 849 25.07 20.3 68.5 28 1.2 34.1
23:15 1020 30.12 849 25.07 20.3 68.5 28 1.1 34
23:20 1020 30.12 849 25.07 20.2 68.4 31 2.7 36.9
23:25 1020 30.12 849 25.07 19.6 67.4 31 2.4 36.3
23:30 1020 30.12 849 25.07 18.9 66 32 2.1 35.9
23:35 1020 30.12 849 25.07 18.5 65.2 33 2.1 35.8
23:40 1020 30.12 849 25.07 18.2 64.7 34 2.1 35.8
23:45 1020 30.12 849 25.07 18 64.5 34 2 35.5
23:50 1019 30.09 849 25.07 18.1 64.5 33 1.7 35
23:55 1019 30.09 849 25.07 18.2 64.8 32 1.2 34.2
24:00 1019 30.09 848 25.04 18.5 65.3 32 1.6 34.9